World Is Not Enough — 9HZH8 — position and weather

sailwx.info

Track history (hours):
 
Tides and Currents Weather Stations Pressure Air Temp Water Temp Dewpoint Dewpoint Depression Visibility Wind Speed Wind Dir Waves Ship Positions

World Is Not Enough

Last reported at 2017-Aug-18 06:07 UTC. Time now 2017-Aug-18 06:44 UTC.
Position N 42°49' E 010°45'.

Length 40 m; draft 1.8 m.

Type: Pleasure craft. MMSI: 256636000.

Date/timePositionNaut miles runAvg speedWind from/ knotsBaromVisibWave heightAir tempDewpointWater temp
2017-Aug-18 06:07N 42°49' E 010°45'0 0.0
2017-Aug-18 05:16N 42°49' E 010°45'0 0.0
2017-Aug-18 04:01N 42°49' E 010°45'0 0.1
2017-Aug-18 03:55N 42°49' E 010°45'0 0.0
2017-Aug-18 01:49N 42°49' E 010°45'0 0.0
2017-Aug-18 01:29N 42°49' E 010°45'0 0.0
2017-Aug-18 01:00N 42°49' E 010°45'0 0.0
2017-Aug-18 00:18N 42°49' E 010°45'0 0.0
2017-Aug-18 00:00N 42°49' E 010°45'0 0.0
2017-Aug-17 23:28N 42°49' E 010°45'0 0.0
2017-Aug-17 22:59N 42°49' E 010°45'0 0.0
2017-Aug-17 22:30N 42°49' E 010°45'0 0.0
2017-Aug-17 22:00N 42°49' E 010°45'0 0.0
2017-Aug-17 21:30N 42°49' E 010°45'0 0.0
2017-Aug-17 20:54N 42°49' E 010°45'0 0.0
2017-Aug-17 20:30N 42°49' E 010°45'0 0.0
2017-Aug-17 20:00N 42°49' E 010°45'0 0.0
2017-Aug-17 19:30N 42°49' E 010°45'0 0.0
2017-Aug-17 19:01N 42°49' E 010°45'0 0.0
2017-Aug-17 18:30N 42°49' E 010°45'0 0.0
2017-Aug-17 17:59N 42°49' E 010°45'0 0.0
2017-Aug-17 17:29N 42°49' E 010°45'0 0.0
2017-Aug-17 17:00N 42°49' E 010°45'0 0.0
2017-Aug-17 16:30N 42°49' E 010°45'0 0.0
2017-Aug-17 16:00N 42°49' E 010°45'0 0.0
2017-Aug-17 15:30N 42°49' E 010°45'2 3.1
2017-Aug-17 15:00N 42°49' E 010°43'1412.8
2017-Aug-17 13:57N 42°57' E 010°28'613.0
2017-Aug-17 13:30N 43°02' E 010°24'613.0
2017-Aug-17 13:00N 43°08' E 010°20'612.9
2017-Aug-17 12:30N 43°14' E 010°16'612.7
2017-Aug-17 12:00N 43°20' E 010°13'612.8
2017-Aug-17 11:30N 43°26' E 010°09'612.8
2017-Aug-17 11:00N 43°32' E 010°07'612.6
2017-Aug-17 10:30N 43°38' E 010°05'612.6
2017-Aug-17 10:00N 43°44' E 010°02'612.7
2017-Aug-17 09:30N 43°50' E 009°60'612.9
2017-Aug-17 09:00N 43°56' E 009°57'612.4
2017-Aug-17 08:30N 44°02' E 009°55'2 3.9
2017-Aug-17 08:00N 44°04' E 009°55'0 0.0
2017-Aug-17 07:30N 44°04' E 009°55'0 0.0
2017-Aug-17 07:00N 44°04' E 009°55'0 0.0
2017-Aug-17 06:30N 44°04' E 009°55'0 0.0
2017-Aug-17 06:00N 44°04' E 009°55'0 0.0
2017-Aug-17 05:31N 44°04' E 009°55'0 0.0
2017-Aug-17 05:00N 44°04' E 009°55'0 0.0
2017-Aug-17 04:30N 44°04' E 009°55'0 0.0
2017-Aug-17 04:00N 44°04' E 009°55'0 0.0
2017-Aug-17 03:30N 44°04' E 009°55'0 0.1
2017-Aug-17 03:00N 44°04' E 009°55'0 0.0
2017-Aug-17 02:30N 44°04' E 009°55'0 0.0
2017-Aug-17 02:00N 44°04' E 009°55'0 0.0
2017-Aug-17 01:30N 44°04' E 009°55'0 0.0
2017-Aug-17 01:00N 44°04' E 009°55'0 0.0
2017-Aug-17 00:30N 44°04' E 009°55'0 0.0
2017-Aug-17 00:00N 44°04' E 009°55'0 0.1
2017-Aug-16 23:30N 44°04' E 009°55'0 0.0
2017-Aug-16 23:00N 44°04' E 009°55'0 0.0
2017-Aug-16 22:30N 44°04' E 009°55'0 0.0
2017-Aug-16 22:00N 44°04' E 009°55'0 0.0
2017-Aug-16 21:30N 44°04' E 009°55'0 0.0
2017-Aug-16 21:00N 44°04' E 009°55'0 0.0
2017-Aug-16 20:30N 44°04' E 009°55'0 0.0
2017-Aug-16 20:00N 44°04' E 009°55'0 0.0
2017-Aug-16 19:26N 44°04' E 009°55'0 0.0
2017-Aug-16 19:00N 44°04' E 009°55'0 0.0
2017-Aug-16 18:30N 44°04' E 009°55'4 8.7
2017-Aug-16 18:00N 44°01' E 009°59'611.7
2017-Aug-16 17:30N 43°58' E 010°06'3 5.3
2017-Aug-16 17:00N 43°57' E 010°10'0 0.0
2017-Aug-16 16:30N 43°57' E 010°10'0 0.0
2017-Aug-16 16:00N 43°57' E 010°10'0 0.0
2017-Aug-16 15:30N 43°57' E 010°10'0 0.0
2017-Aug-16 15:00N 43°57' E 010°10'0 0.0
2017-Aug-16 14:30N 43°57' E 010°10'0 0.0
2017-Aug-16 14:00N 43°57' E 010°10'0 0.0
2017-Aug-16 13:30N 43°57' E 010°10'0 0.0
2017-Aug-16 13:00N 43°57' E 010°10'0 0.0
2017-Aug-16 12:30N 43°57' E 010°10'1 2.2
2017-Aug-16 12:00N 43°58' E 010°08'611.6
2017-Aug-16 11:30N 44°01' E 010°01'611.6
2017-Aug-16 11:00N 44°04' E 009°55'0 0.3
2017-Aug-16 10:30N 44°04' E 009°55'0 0.0
2017-Aug-16 10:00N 44°04' E 009°55'4 7.2
2017-Aug-16 09:30N 44°02' E 009°51'2 4.0
2017-Aug-16 09:00N 44°01' E 009°53'611.6
2017-Aug-16 08:30N 44°02' E 010°01'611.5
2017-Aug-16 08:00N 43°58' E 010°08'0 0.5
2017-Aug-16 07:30N 43°58' E 010°08'0 0.1
2017-Aug-16 07:00N 43°58' E 010°08'0 0.0
2017-Aug-16 06:30N 43°58' E 010°08'0 0.0
2017-Aug-16 06:00N 43°58' E 010°08'0 0.0
2017-Aug-16 05:30N 43°58' E 010°08'0 0.0
2017-Aug-16 05:00N 43°58' E 010°08'0 0.0
2017-Aug-16 04:30N 43°58' E 010°08'0 0.0
2017-Aug-16 04:00N 43°58' E 010°08'0 0.0
2017-Aug-16 03:30N 43°58' E 010°08'0 0.0
2017-Aug-16 03:00N 43°58' E 010°08'0 0.0
2017-Aug-16 02:30N 43°58' E 010°08'0 0.0
2017-Aug-16 01:59N 43°58' E 010°08'0 0.0
2017-Aug-16 01:30N 43°58' E 010°08'0 0.0
2017-Aug-16 01:01N 43°58' E 010°08'0 0.1
2017-Aug-16 00:31N 43°58' E 010°08'0 0.0
2017-Aug-16 00:00N 43°58' E 010°08'0 0.0
2017-Aug-15 23:30N 43°58' E 010°08'0 0.0
2017-Aug-15 23:00N 43°58' E 010°08'0 0.0
2017-Aug-15 22:30N 43°58' E 010°08'0 0.0
2017-Aug-15 22:00N 43°58' E 010°08'0 0.0
2017-Aug-15 21:30N 43°58' E 010°08'0 0.0
2017-Aug-15 21:00N 43°58' E 010°08'0 0.1
2017-Aug-15 20:30N 43°58' E 010°08'0 0.0
2017-Aug-15 19:59N 43°58' E 010°08'0 0.0
2017-Aug-15 19:31N 43°58' E 010°08'0 0.0
2017-Aug-15 19:01N 43°58' E 010°08'2 3.1
2017-Aug-15 18:30N 43°57' E 010°10'0 0.0
2017-Aug-15 18:00N 43°57' E 010°10'1 1.4
2017-Aug-15 17:30N 43°58' E 010°09'611.9
2017-Aug-15 17:01N 44°01' E 010°02'612.2
2017-Aug-15 16:30N 44°01' E 009°53'612.5
2017-Aug-15 16:00N 44°01' E 009°45'713.1
2017-Aug-15 15:30N 44°05' E 009°37'713.0
2017-Aug-15 15:00N 44°10' E 009°32'1611.9
2017-Aug-15 13:39N 44°19' E 009°13'1 3.8
2017-Aug-15 13:30N 44°19' E 009°13'0 0.0
2017-Aug-15 12:58N 44°19' E 009°13'0 0.1
2017-Aug-15 12:30N 44°19' E 009°13'0 0.0
2017-Aug-15 12:00N 44°19' E 009°13'0 0.0
2017-Aug-15 11:30N 44°19' E 009°13'0 0.0
2017-Aug-15 11:00N 44°19' E 009°13'0 0.0
2017-Aug-15 10:29N 44°19' E 009°13'0 0.0
2017-Aug-15 10:01N 44°19' E 009°13'0 0.0
2017-Aug-15 09:29N 44°19' E 009°13'0 0.0
2017-Aug-15 09:00N 44°19' E 009°13'0 0.0
2017-Aug-15 08:30N 44°19' E 009°13'0 0.0
2017-Aug-15 08:00N 44°19' E 009°13'0 0.0
2017-Aug-15 07:30N 44°19' E 009°13'0 0.0
2017-Aug-15 07:00N 44°19' E 009°13'0 0.0
2017-Aug-15 06:30N 44°19' E 009°13'0 0.0
2017-Aug-15 06:00N 44°19' E 009°13'0 0.0
2017-Aug-15 05:30N 44°19' E 009°13'0 0.1
2017-Aug-15 05:00N 44°19' E 009°13'0 0.0
2017-Aug-15 04:30N 44°19' E 009°13'0 0.1
2017-Aug-15 04:00N 44°19' E 009°13'0 0.0
2017-Aug-15 03:30N 44°19' E 009°13'0 0.1
2017-Aug-15 02:58N 44°19' E 009°13'0 0.0
2017-Aug-15 02:26N 44°19' E 009°13'0 0.0
2017-Aug-15 02:00N 44°19' E 009°13'0 0.0
2017-Aug-15 01:28N 44°19' E 009°13'0 0.0
2017-Aug-15 00:55N 44°19' E 009°13'0 0.0
2017-Aug-15 00:30N 44°19' E 009°13'0 0.0
2017-Aug-14 23:57N 44°19' E 009°13'0 0.0
2017-Aug-14 23:23N 44°19' E 009°13'0 0.0
2017-Aug-14 23:00N 44°19' E 009°13'0 0.0
2017-Aug-14 22:26N 44°19' E 009°13'0 0.0
2017-Aug-14 21:59N 44°19' E 009°13'0 0.0
2017-Aug-14 21:30N 44°19' E 009°13'0 0.0
2017-Aug-14 21:00N 44°19' E 009°13'0 0.0
2017-Aug-14 20:24N 44°19' E 009°13'0 0.1
2017-Aug-14 20:00N 44°19' E 009°13'0 0.1
2017-Aug-14 19:30N 44°19' E 009°13'0 0.0
2017-Aug-14 18:59N 44°19' E 009°13'1 1.3
2017-Aug-14 18:28N 44°18' E 009°14'612.4
2017-Aug-14 18:00N 44°15' E 009°07'613.0
2017-Aug-14 17:30N 44°13' E 008°58'612.9
2017-Aug-14 17:01N 44°10' E 008°50'612.8
2017-Aug-14 16:30N 44°08' E 008°42'612.8
2017-Aug-14 16:00N 44°06' E 008°34'612.7
2017-Aug-14 15:30N 44°03' E 008°25'612.5
2017-Aug-14 15:00N 44°01' E 008°17'611.3
2017-Aug-14 14:30N 43°59' E 008°10'0 0.2
2017-Aug-14 14:00N 43°58' E 008°10'0 0.0
2017-Aug-14 13:30N 43°58' E 008°10'1 1.5
2017-Aug-14 12:59N 43°58' E 008°11'1211.5
2017-Aug-14 11:59N 43°50' E 007°58'25 5.3
2017-Aug-14 07:21N 43°44' E 007°25'0 0.0
2017-Aug-14 05:37N 43°44' E 007°25'0 0.1
2017-Aug-14 05:30N 43°44' E 007°25'0 0.0
2017-Aug-13 17:00N 43°44' E 007°25'0 0.0
2017-Aug-13 16:27N 43°44' E 007°25'0 0.0
2017-Aug-13 16:00N 43°44' E 007°25'1 1.2
2017-Aug-13 15:30N 43°44' E 007°26'611.2
2017-Aug-13 15:00N 43°40' E 007°20'612.1
2017-Aug-13 14:30N 43°37' E 007°13'4 8.5
2017-Aug-13 14:00N 43°34' E 007°08'0 0.0
2017-Aug-13 13:30N 43°34' E 007°08'0 0.0
2017-Aug-13 12:59N 43°34' E 007°08'0 0.0
2017-Aug-13 12:29N 43°34' E 007°08'2 1.5
2017-Aug-13 11:16N 43°33' E 007°06'3 5.7
2017-Aug-13 10:46N 43°36' E 007°08'15 0.9
2017-Aug-12 18:04N 43°44' E 007°26'1 4.8
2017-Aug-12 17:55N 43°43' E 007°26'410.1
2017-Aug-12 17:30N 43°41' E 007°21'8 1.8
2017-Aug-12 13:11N 43°39' E 007°11'0 0.2
2017-Aug-12 13:00N 43°39' E 007°11'0 0.0
2017-Aug-12 12:29N 43°39' E 007°11'0 0.0
2017-Aug-12 11:55N 43°39' E 007°11'2 0.8
2017-Aug-12 09:06N 43°37' E 007°10'211.3
2017-Aug-12 08:57N 43°35' E 007°10'4 9.8
2017-Aug-12 08:30N 43°31' E 007°07'4 7.2
2017-Aug-12 08:01N 43°32' E 007°02'1 1.4
2017-Aug-12 07:30N 43°32' E 007°02'0 0.0
2017-Aug-12 07:00N 43°32' E 007°02'0 0.0
2017-Aug-12 06:30N 43°32' E 007°02'0 0.0
2017-Aug-12 06:00N 43°32' E 007°02'0 0.0
2017-Aug-12 05:30N 43°32' E 007°02'0 0.0
2017-Aug-12 05:00N 43°32' E 007°02'0 0.0
2017-Aug-12 04:30N 43°32' E 007°02'0 0.0
2017-Aug-12 04:00N 43°32' E 007°02'0 0.0
2017-Aug-12 03:30N 43°32' E 007°02'0 0.0
2017-Aug-12 03:00N 43°32' E 007°02'0 0.0
2017-Aug-12 02:30N 43°32' E 007°02'0 0.0
2017-Aug-12 02:00N 43°32' E 007°02'0 0.0
2017-Aug-12 01:30N 43°32' E 007°02'0 0.0
2017-Aug-12 01:00N 43°32' E 007°02'0 0.0
2017-Aug-12 00:30N 43°32' E 007°02'0 0.0
2017-Aug-12 00:00N 43°32' E 007°02'0 0.0
2017-Aug-11 23:30N 43°32' E 007°02'0 0.0
2017-Aug-11 23:00N 43°32' E 007°02'0 0.0
2017-Aug-11 22:30N 43°32' E 007°02'0 0.0
2017-Aug-11 22:00N 43°32' E 007°02'0 0.0
2017-Aug-11 21:30N 43°32' E 007°02'0 0.0
2017-Aug-11 21:00N 43°32' E 007°02'0 0.0
2017-Aug-11 20:30N 43°32' E 007°02'0 0.0
2017-Aug-11 20:00N 43°32' E 007°02'0 0.0
2017-Aug-11 19:30N 43°32' E 007°02'0 0.0
2017-Aug-11 19:00N 43°32' E 007°02'0 0.0
2017-Aug-11 18:30N 43°32' E 007°02'0 0.0
2017-Aug-11 18:01N 43°32' E 007°02'0 0.0
2017-Aug-11 17:30N 43°32' E 007°02'0 0.0
2017-Aug-11 17:00N 43°32' E 007°02'0 0.0
2017-Aug-11 16:30N 43°32' E 007°02'0 0.0
2017-Aug-11 16:00N 43°32' E 007°02'0 0.0
2017-Aug-11 15:30N 43°32' E 007°02'0 0.0
2017-Aug-11 15:00N 43°32' E 007°02'0 0.0
2017-Aug-11 14:00N 43°32' E 007°02'0 0.0
2017-Aug-11 13:30N 43°32' E 007°02'0 0.0
2017-Aug-11 13:00N 43°32' E 007°02'0 0.0
2017-Aug-11 12:30N 43°32' E 007°02'0 0.0
2017-Aug-11 12:00N 43°32' E 007°02'0 0.0
2017-Aug-11 11:30N 43°32' E 007°02'0 0.0
2017-Aug-11 11:01N 43°32' E 007°02'0 0.0
2017-Aug-11 10:30N 43°32' E 007°02'0 0.0
2017-Aug-11 10:00N 43°32' E 007°02'0 0.0
2017-Aug-11 09:30N 43°32' E 007°02'0 0.0
2017-Aug-11 09:00N 43°32' E 007°02'0 0.0
2017-Aug-11 08:30N 43°32' E 007°02'0 0.0
2017-Aug-11 08:00N 43°32' E 007°02'0 0.0
2017-Aug-11 07:30N 43°32' E 007°02'0 0.0
2017-Aug-11 07:00N 43°32' E 007°02'0 0.0
2017-Aug-11 06:30N 43°32' E 007°02'0 0.0
2017-Aug-11 06:00N 43°32' E 007°02'0 0.0
2017-Aug-11 05:30N 43°32' E 007°02'0 0.0
2017-Aug-11 05:00N 43°32' E 007°02'0 0.0
2017-Aug-11 04:30N 43°32' E 007°02'0 0.0
2017-Aug-11 04:00N 43°32' E 007°02'0 0.0
2017-Aug-11 03:30N 43°32' E 007°02'0 0.0
2017-Aug-11 03:00N 43°32' E 007°02'0 0.0
2017-Aug-11 02:30N 43°32' E 007°02'0 0.0
2017-Aug-11 02:00N 43°32' E 007°02'0 0.0
2017-Aug-11 01:30N 43°32' E 007°02'0 0.0
2017-Aug-11 01:00N 43°32' E 007°02'0 0.0
2017-Aug-11 00:30N 43°32' E 007°02'0 0.0
2017-Aug-11 00:00N 43°32' E 007°02'0 0.0
2017-Aug-10 23:30N 43°32' E 007°02'0 0.0
2017-Aug-10 23:00N 43°32' E 007°02'0 0.0
2017-Aug-10 22:30N 43°32' E 007°02'0 0.0
2017-Aug-10 22:00N 43°32' E 007°02'0 0.0
2017-Aug-10 21:30N 43°32' E 007°02'0 0.0
2017-Aug-10 21:00N 43°32' E 007°02'0 0.0
2017-Aug-10 20:30N 43°32' E 007°02'0 0.0
2017-Aug-10 20:00N 43°32' E 007°02'0 0.0
2017-Aug-10 19:30N 43°32' E 007°02'0 0.0
2017-Aug-10 19:00N 43°32' E 007°02'0 0.0
2017-Aug-10 18:30N 43°32' E 007°02'0 0.0
2017-Aug-10 18:00N 43°32' E 007°02'0 0.0
2017-Aug-10 17:30N 43°32' E 007°02'0 0.0
2017-Aug-10 17:00N 43°32' E 007°02'0 0.0
2017-Aug-10 16:30N 43°32' E 007°02'0 0.0
2017-Aug-10 16:00N 43°32' E 007°02'0 0.0
2017-Aug-10 15:30N 43°32' E 007°02'0 0.0
2017-Aug-10 15:00N 43°32' E 007°02'0 0.0
2017-Aug-10 14:30N 43°32' E 007°02'0 0.0
2017-Aug-10 14:01N 43°32' E 007°02'0 0.0
2017-Aug-10 13:30N 43°32' E 007°02'0 0.0
2017-Aug-10 13:00N 43°32' E 007°02'0 0.0
2017-Aug-10 12:30N 43°32' E 007°02'0 0.0
2017-Aug-10 12:00N 43°32' E 007°02'0 0.0
2017-Aug-10 11:30N 43°32' E 007°02'0 0.0
2017-Aug-10 11:00N 43°32' E 007°02'0 0.0
2017-Aug-10 10:30N 43°32' E 007°02'0 0.0
2017-Aug-10 10:00N 43°32' E 007°02'0 0.0
2017-Aug-10 09:30N 43°32' E 007°02'0 0.0
2017-Aug-10 09:00N 43°32' E 007°02'0 0.0
2017-Aug-10 08:30N 43°32' E 007°02'0 0.0
2017-Aug-10 08:00N 43°32' E 007°02'0 0.0
2017-Aug-10 07:30N 43°32' E 007°02'0 0.0
2017-Aug-10 07:00N 43°32' E 007°02'0 0.0
2017-Aug-10 06:30N 43°32' E 007°02'0 0.0
2017-Aug-10 06:00N 43°32' E 007°02'0 0.0
2017-Aug-10 05:30N 43°32' E 007°02'0 0.0
2017-Aug-10 05:00N 43°32' E 007°02'0 0.0
2017-Aug-10 04:30N 43°32' E 007°02'0 0.0
2017-Aug-10 04:01N 43°32' E 007°02'0 0.0
2017-Aug-10 03:30N 43°32' E 007°02'0 0.0
2017-Aug-10 03:00N 43°32' E 007°02'0 0.0
2017-Aug-10 02:30N 43°32' E 007°02'0 0.0
2017-Aug-10 02:01N 43°32' E 007°02'0 0.0
2017-Aug-10 01:31N 43°32' E 007°02'0 0.0
2017-Aug-10 01:00N 43°32' E 007°02'0 0.0
2017-Aug-10 00:30N 43°32' E 007°02'0 0.0
2017-Aug-10 00:00N 43°32' E 007°02'0 0.0
2017-Aug-09 23:30N 43°32' E 007°02'0 0.0
2017-Aug-09 23:00N 43°32' E 007°02'0 0.0
2017-Aug-09 22:30N 43°32' E 007°02'0 0.0
2017-Aug-09 22:00N 43°32' E 007°02'0 0.0
2017-Aug-09 21:30N 43°32' E 007°02'0 0.0
2017-Aug-09 21:00N 43°32' E 007°02'0 0.0
2017-Aug-09 20:30N 43°32' E 007°02'0 0.0
2017-Aug-09 20:00N 43°32' E 007°02'0 0.0
2017-Aug-09 19:30N 43°32' E 007°02'0 0.0
2017-Aug-09 19:00N 43°32' E 007°02'0 0.0
2017-Aug-09 18:30N 43°32' E 007°02'0 0.0
2017-Aug-09 18:00N 43°32' E 007°02'0 0.0
2017-Aug-09 17:30N 43°32' E 007°02'0 0.0
2017-Aug-09 17:00N 43°32' E 007°02'0 0.0
2017-Aug-09 16:30N 43°32' E 007°02'0 0.0
2017-Aug-09 16:00N 43°32' E 007°02'0 0.0
2017-Aug-09 15:30N 43°32' E 007°02'0 0.0
2017-Aug-09 15:00N 43°32' E 007°02'0 0.0
2017-Aug-09 14:30N 43°32' E 007°02'0 0.0
2017-Aug-09 14:00N 43°32' E 007°02'0 0.0
2017-Aug-09 13:30N 43°32' E 007°02'0 0.0
2017-Aug-09 13:00N 43°32' E 007°02'0 0.0
2017-Aug-09 12:30N 43°32' E 007°02'3 5.1
2017-Aug-09 12:00N 43°30' E 007°02'812.8
2017-Aug-09 11:22N 43°35' E 007°11'1312.8
2017-Aug-09 10:21N 43°43' E 007°25'1 0.1
2017-Aug-08 14:08N 43°44' E 007°25'0 0.0
2017-Aug-08 13:55N 43°44' E 007°25'0 0.0
2017-Aug-08 13:29N 43°44' E 007°25'0 0.0
2017-Aug-08 12:43N 43°44' E 007°25'0 0.0
2017-Aug-08 12:20N 43°44' E 007°25'0 0.0
2017-Aug-08 12:00N 43°44' E 007°25'  
Track history (hours):
 
Tides and Currents Weather Stations Pressure Air Temp Water Temp Dewpoint Dewpoint Depression Visibility Wind Speed Wind Dir Waves Ship Positions

World Is Not Enough

Last reported at 2017-Aug-18 06:07 UTC. Time now 2017-Aug-18 06:44 UTC.
Position N 42°49' E 010°45'.

Length 40 m; draft 1.8 m.

Type: Pleasure craft. MMSI: 256636000.

Date/timePositionNaut miles runAvg speedWind from/ knotsBaromVisibWave heightAir tempDewpointWater temp
2017-Aug-18 06:07N 42°49' E 010°45'0 0.0
2017-Aug-18 05:16N 42°49' E 010°45'0 0.0
2017-Aug-18 04:01N 42°49' E 010°45'0 0.1
2017-Aug-18 03:55N 42°49' E 010°45'0 0.0
2017-Aug-18 01:49N 42°49' E 010°45'0 0.0
2017-Aug-18 01:29N 42°49' E 010°45'0 0.0
2017-Aug-18 01:00N 42°49' E 010°45'0 0.0
2017-Aug-18 00:18N 42°49' E 010°45'0 0.0
2017-Aug-18 00:00N 42°49' E 010°45'0 0.0
2017-Aug-17 23:28N 42°49' E 010°45'0 0.0
2017-Aug-17 22:59N 42°49' E 010°45'0 0.0
2017-Aug-17 22:30N 42°49' E 010°45'0 0.0
2017-Aug-17 22:00N 42°49' E 010°45'0 0.0
2017-Aug-17 21:30N 42°49' E 010°45'0 0.0
2017-Aug-17 20:54N 42°49' E 010°45'0 0.0
2017-Aug-17 20:30N 42°49' E 010°45'0 0.0
2017-Aug-17 20:00N 42°49' E 010°45'0 0.0
2017-Aug-17 19:30N 42°49' E 010°45'0 0.0
2017-Aug-17 19:01N 42°49' E 010°45'0 0.0
2017-Aug-17 18:30N 42°49' E 010°45'0 0.0
2017-Aug-17 17:59N 42°49' E 010°45'0 0.0
2017-Aug-17 17:29N 42°49' E 010°45'0 0.0
2017-Aug-17 17:00N 42°49' E 010°45'0 0.0
2017-Aug-17 16:30N 42°49' E 010°45'0 0.0
2017-Aug-17 16:00N 42°49' E 010°45'0 0.0
2017-Aug-17 15:30N 42°49' E 010°45'2 3.1
2017-Aug-17 15:00N 42°49' E 010°43'1412.8
2017-Aug-17 13:57N 42°57' E 010°28'613.0
2017-Aug-17 13:30N 43°02' E 010°24'613.0
2017-Aug-17 13:00N 43°08' E 010°20'612.9
2017-Aug-17 12:30N 43°14' E 010°16'612.7
2017-Aug-17 12:00N 43°20' E 010°13'612.8
2017-Aug-17 11:30N 43°26' E 010°09'612.8
2017-Aug-17 11:00N 43°32' E 010°07'612.6
2017-Aug-17 10:30N 43°38' E 010°05'612.6
2017-Aug-17 10:00N 43°44' E 010°02'612.7
2017-Aug-17 09:30N 43°50' E 009°60'612.9
2017-Aug-17 09:00N 43°56' E 009°57'612.4
2017-Aug-17 08:30N 44°02' E 009°55'2 3.9
2017-Aug-17 08:00N 44°04' E 009°55'0 0.0
2017-Aug-17 07:30N 44°04' E 009°55'0 0.0
2017-Aug-17 07:00N 44°04' E 009°55'0 0.0
2017-Aug-17 06:30N 44°04' E 009°55'0 0.0
2017-Aug-17 06:00N 44°04' E 009°55'0 0.0
2017-Aug-17 05:31N 44°04' E 009°55'0 0.0
2017-Aug-17 05:00N 44°04' E 009°55'0 0.0
2017-Aug-17 04:30N 44°04' E 009°55'0 0.0
2017-Aug-17 04:00N 44°04' E 009°55'0 0.0
2017-Aug-17 03:30N 44°04' E 009°55'0 0.1
2017-Aug-17 03:00N 44°04' E 009°55'0 0.0
2017-Aug-17 02:30N 44°04' E 009°55'0 0.0
2017-Aug-17 02:00N 44°04' E 009°55'0 0.0
2017-Aug-17 01:30N 44°04' E 009°55'0 0.0
2017-Aug-17 01:00N 44°04' E 009°55'0 0.0
2017-Aug-17 00:30N 44°04' E 009°55'0 0.0
2017-Aug-17 00:00N 44°04' E 009°55'0 0.1
2017-Aug-16 23:30N 44°04' E 009°55'0 0.0
2017-Aug-16 23:00N 44°04' E 009°55'0 0.0
2017-Aug-16 22:30N 44°04' E 009°55'0 0.0
2017-Aug-16 22:00N 44°04' E 009°55'0 0.0
2017-Aug-16 21:30N 44°04' E 009°55'0 0.0
2017-Aug-16 21:00N 44°04' E 009°55'0 0.0
2017-Aug-16 20:30N 44°04' E 009°55'0 0.0
2017-Aug-16 20:00N 44°04' E 009°55'0 0.0
2017-Aug-16 19:26N 44°04' E 009°55'0 0.0
2017-Aug-16 19:00N 44°04' E 009°55'0 0.0
2017-Aug-16 18:30N 44°04' E 009°55'4 8.7
2017-Aug-16 18:00N 44°01' E 009°59'611.7
2017-Aug-16 17:30N 43°58' E 010°06'3 5.3
2017-Aug-16 17:00N 43°57' E 010°10'0 0.0
2017-Aug-16 16:30N 43°57' E 010°10'0 0.0
2017-Aug-16 16:00N 43°57' E 010°10'0 0.0
2017-Aug-16 15:30N 43°57' E 010°10'0 0.0
2017-Aug-16 15:00N 43°57' E 010°10'0 0.0
2017-Aug-16 14:30N 43°57' E 010°10'0 0.0
2017-Aug-16 14:00N 43°57' E 010°10'0 0.0
2017-Aug-16 13:30N 43°57' E 010°10'0 0.0
2017-Aug-16 13:00N 43°57' E 010°10'0 0.0
2017-Aug-16 12:30N 43°57' E 010°10'1 2.2
2017-Aug-16 12:00N 43°58' E 010°08'611.6
2017-Aug-16 11:30N 44°01' E 010°01'611.6
2017-Aug-16 11:00N 44°04' E 009°55'0 0.3
2017-Aug-16 10:30N 44°04' E 009°55'0 0.0
2017-Aug-16 10:00N 44°04' E 009°55'4 7.2
2017-Aug-16 09:30N 44°02' E 009°51'2 4.0
2017-Aug-16 09:00N 44°01' E 009°53'611.6
2017-Aug-16 08:30N 44°02' E 010°01'611.5
2017-Aug-16 08:00N 43°58' E 010°08'0 0.5
2017-Aug-16 07:30N 43°58' E 010°08'0 0.1
2017-Aug-16 07:00N 43°58' E 010°08'0 0.0
2017-Aug-16 06:30N 43°58' E 010°08'0 0.0
2017-Aug-16 06:00N 43°58' E 010°08'0 0.0
2017-Aug-16 05:30N 43°58' E 010°08'0 0.0
2017-Aug-16 05:00N 43°58' E 010°08'0 0.0
2017-Aug-16 04:30N 43°58' E 010°08'0 0.0
2017-Aug-16 04:00N 43°58' E 010°08'0 0.0
2017-Aug-16 03:30N 43°58' E 010°08'0 0.0
2017-Aug-16 03:00N 43°58' E 010°08'0 0.0
2017-Aug-16 02:30N 43°58' E 010°08'0 0.0
2017-Aug-16 01:59N 43°58' E 010°08'0 0.0
2017-Aug-16 01:30N 43°58' E 010°08'0 0.0
2017-Aug-16 01:01N 43°58' E 010°08'0 0.1
2017-Aug-16 00:31N 43°58' E 010°08'0 0.0
2017-Aug-16 00:00N 43°58' E 010°08'0 0.0
2017-Aug-15 23:30N 43°58' E 010°08'0 0.0
2017-Aug-15 23:00N 43°58' E 010°08'0 0.0
2017-Aug-15 22:30N 43°58' E 010°08'0 0.0
2017-Aug-15 22:00N 43°58' E 010°08'0 0.0
2017-Aug-15 21:30N 43°58' E 010°08'0 0.0
2017-Aug-15 21:00N 43°58' E 010°08'0 0.1
2017-Aug-15 20:30N 43°58' E 010°08'0 0.0
2017-Aug-15 19:59N 43°58' E 010°08'0 0.0
2017-Aug-15 19:31N 43°58' E 010°08'0 0.0
2017-Aug-15 19:01N 43°58' E 010°08'2 3.1
2017-Aug-15 18:30N 43°57' E 010°10'0 0.0
2017-Aug-15 18:00N 43°57' E 010°10'1 1.4
2017-Aug-15 17:30N 43°58' E 010°09'611.9
2017-Aug-15 17:01N 44°01' E 010°02'612.2
2017-Aug-15 16:30N 44°01' E 009°53'612.5
2017-Aug-15 16:00N 44°01' E 009°45'713.1
2017-Aug-15 15:30N 44°05' E 009°37'713.0
2017-Aug-15 15:00N 44°10' E 009°32'1611.9
2017-Aug-15 13:39N 44°19' E 009°13'1 3.8
2017-Aug-15 13:30N 44°19' E 009°13'0 0.0
2017-Aug-15 12:58N 44°19' E 009°13'0 0.1
2017-Aug-15 12:30N 44°19' E 009°13'0 0.0
2017-Aug-15 12:00N 44°19' E 009°13'0 0.0
2017-Aug-15 11:30N 44°19' E 009°13'0 0.0
2017-Aug-15 11:00N 44°19' E 009°13'0 0.0
2017-Aug-15 10:29N 44°19' E 009°13'0 0.0
2017-Aug-15 10:01N 44°19' E 009°13'0 0.0
2017-Aug-15 09:29N 44°19' E 009°13'0 0.0
2017-Aug-15 09:00N 44°19' E 009°13'0 0.0
2017-Aug-15 08:30N 44°19' E 009°13'0 0.0
2017-Aug-15 08:00N 44°19' E 009°13'0 0.0
2017-Aug-15 07:30N 44°19' E 009°13'0 0.0
2017-Aug-15 07:00N 44°19' E 009°13'0 0.0
2017-Aug-15 06:30N 44°19' E 009°13'0 0.0
2017-Aug-15 06:00N 44°19' E 009°13'0 0.0
2017-Aug-15 05:30N 44°19' E 009°13'0 0.1
2017-Aug-15 05:00N 44°19' E 009°13'0 0.0
2017-Aug-15 04:30N 44°19' E 009°13'0 0.1
2017-Aug-15 04:00N 44°19' E 009°13'0 0.0
2017-Aug-15 03:30N 44°19' E 009°13'0 0.1
2017-Aug-15 02:58N 44°19' E 009°13'0 0.0
2017-Aug-15 02:26N 44°19' E 009°13'0 0.0
2017-Aug-15 02:00N 44°19' E 009°13'0 0.0
2017-Aug-15 01:28N 44°19' E 009°13'0 0.0
2017-Aug-15 00:55N 44°19' E 009°13'0 0.0
2017-Aug-15 00:30N 44°19' E 009°13'0 0.0
2017-Aug-14 23:57N 44°19' E 009°13'0 0.0
2017-Aug-14 23:23N 44°19' E 009°13'0 0.0
2017-Aug-14 23:00N 44°19' E 009°13'0 0.0
2017-Aug-14 22:26N 44°19' E 009°13'0 0.0
2017-Aug-14 21:59N 44°19' E 009°13'0 0.0
2017-Aug-14 21:30N 44°19' E 009°13'0 0.0
2017-Aug-14 21:00N 44°19' E 009°13'0 0.0
2017-Aug-14 20:24N 44°19' E 009°13'0 0.1
2017-Aug-14 20:00N 44°19' E 009°13'0 0.1
2017-Aug-14 19:30N 44°19' E 009°13'0 0.0
2017-Aug-14 18:59N 44°19' E 009°13'1 1.3
2017-Aug-14 18:28N 44°18' E 009°14'612.4
2017-Aug-14 18:00N 44°15' E 009°07'613.0
2017-Aug-14 17:30N 44°13' E 008°58'612.9
2017-Aug-14 17:01N 44°10' E 008°50'612.8
2017-Aug-14 16:30N 44°08' E 008°42'612.8
2017-Aug-14 16:00N 44°06' E 008°34'612.7
2017-Aug-14 15:30N 44°03' E 008°25'612.5
2017-Aug-14 15:00N 44°01' E 008°17'611.3
2017-Aug-14 14:30N 43°59' E 008°10'0 0.2
2017-Aug-14 14:00N 43°58' E 008°10'0 0.0
2017-Aug-14 13:30N 43°58' E 008°10'1 1.5
2017-Aug-14 12:59N 43°58' E 008°11'1211.5
2017-Aug-14 11:59N 43°50' E 007°58'25 5.3
2017-Aug-14 07:21N 43°44' E 007°25'0 0.0
2017-Aug-14 05:37N 43°44' E 007°25'0 0.1
2017-Aug-14 05:30N 43°44' E 007°25'0 0.0
2017-Aug-13 17:00N 43°44' E 007°25'0 0.0
2017-Aug-13 16:27N 43°44' E 007°25'0 0.0
2017-Aug-13 16:00N 43°44' E 007°25'1 1.2
2017-Aug-13 15:30N 43°44' E 007°26'611.2
2017-Aug-13 15:00N 43°40' E 007°20'612.1
2017-Aug-13 14:30N 43°37' E 007°13'4 8.5
2017-Aug-13 14:00N 43°34' E 007°08'0 0.0
2017-Aug-13 13:30N 43°34' E 007°08'0 0.0
2017-Aug-13 12:59N 43°34' E 007°08'0 0.0
2017-Aug-13 12:29N 43°34' E 007°08'2 1.5
2017-Aug-13 11:16N 43°33' E 007°06'3 5.7
2017-Aug-13 10:46N 43°36' E 007°08'15 0.9
2017-Aug-12 18:04N 43°44' E 007°26'1 4.8
2017-Aug-12 17:55N 43°43' E 007°26'410.1
2017-Aug-12 17:30N 43°41' E 007°21'8 1.8
2017-Aug-12 13:11N 43°39' E 007°11'0 0.2
2017-Aug-12 13:00N 43°39' E 007°11'0 0.0
2017-Aug-12 12:29N 43°39' E 007°11'0 0.0
2017-Aug-12 11:55N 43°39' E 007°11'2 0.8
2017-Aug-12 09:06N 43°37' E 007°10'211.3
2017-Aug-12 08:57N 43°35' E 007°10'4 9.8
2017-Aug-12 08:30N 43°31' E 007°07'4 7.2
2017-Aug-12 08:01N 43°32' E 007°02'1 1.4
2017-Aug-12 07:30N 43°32' E 007°02'0 0.0
2017-Aug-12 07:00N 43°32' E 007°02'0 0.0
2017-Aug-12 06:30N 43°32' E 007°02'0 0.0
2017-Aug-12 06:00N 43°32' E 007°02'0 0.0
2017-Aug-12 05:30N 43°32' E 007°02'0 0.0
2017-Aug-12 05:00N 43°32' E 007°02'0 0.0
2017-Aug-12 04:30N 43°32' E 007°02'0 0.0
2017-Aug-12 04:00N 43°32' E 007°02'0 0.0
2017-Aug-12 03:30N 43°32' E 007°02'0 0.0
2017-Aug-12 03:00N 43°32' E 007°02'0 0.0
2017-Aug-12 02:30N 43°32' E 007°02'0 0.0
2017-Aug-12 02:00N 43°32' E 007°02'0 0.0
2017-Aug-12 01:30N 43°32' E 007°02'0 0.0
2017-Aug-12 01:00N 43°32' E 007°02'0 0.0
2017-Aug-12 00:30N 43°32' E 007°02'0 0.0
2017-Aug-12 00:00N 43°32' E 007°02'0 0.0
2017-Aug-11 23:30N 43°32' E 007°02'0 0.0
2017-Aug-11 23:00N 43°32' E 007°02'0 0.0
2017-Aug-11 22:30N 43°32' E 007°02'0 0.0
2017-Aug-11 22:00N 43°32' E 007°02'0 0.0
2017-Aug-11 21:30N 43°32' E 007°02'0 0.0
2017-Aug-11 21:00N 43°32' E 007°02'0 0.0
2017-Aug-11 20:30N 43°32' E 007°02'0 0.0
2017-Aug-11 20:00N 43°32' E 007°02'0 0.0
2017-Aug-11 19:30N 43°32' E 007°02'0 0.0
2017-Aug-11 19:00N 43°32' E 007°02'0 0.0
2017-Aug-11 18:30N 43°32' E 007°02'0 0.0
2017-Aug-11 18:01N 43°32' E 007°02'0 0.0
2017-Aug-11 17:30N 43°32' E 007°02'0 0.0
2017-Aug-11 17:00N 43°32' E 007°02'0 0.0
2017-Aug-11 16:30N 43°32' E 007°02'0 0.0
2017-Aug-11 16:00N 43°32' E 007°02'0 0.0
2017-Aug-11 15:30N 43°32' E 007°02'0 0.0
2017-Aug-11 15:00N 43°32' E 007°02'0 0.0
2017-Aug-11 14:00N 43°32' E 007°02'0 0.0
2017-Aug-11 13:30N 43°32' E 007°02'0 0.0
2017-Aug-11 13:00N 43°32' E 007°02'0 0.0
2017-Aug-11 12:30N 43°32' E 007°02'0 0.0
2017-Aug-11 12:00N 43°32' E 007°02'0 0.0
2017-Aug-11 11:30N 43°32' E 007°02'0 0.0
2017-Aug-11 11:01N 43°32' E 007°02'0 0.0
2017-Aug-11 10:30N 43°32' E 007°02'0 0.0
2017-Aug-11 10:00N 43°32' E 007°02'0 0.0
2017-Aug-11 09:30N 43°32' E 007°02'0 0.0
2017-Aug-11 09:00N 43°32' E 007°02'0 0.0
2017-Aug-11 08:30N 43°32' E 007°02'0 0.0
2017-Aug-11 08:00N 43°32' E 007°02'0 0.0
2017-Aug-11 07:30N 43°32' E 007°02'0 0.0
2017-Aug-11 07:00N 43°32' E 007°02'0 0.0
2017-Aug-11 06:30N 43°32' E 007°02'0 0.0
2017-Aug-11 06:00N 43°32' E 007°02'0 0.0
2017-Aug-11 05:30N 43°32' E 007°02'0 0.0
2017-Aug-11 05:00N 43°32' E 007°02'0 0.0
2017-Aug-11 04:30N 43°32' E 007°02'0 0.0
2017-Aug-11 04:00N 43°32' E 007°02'0 0.0
2017-Aug-11 03:30N 43°32' E 007°02'0 0.0
2017-Aug-11 03:00N 43°32' E 007°02'0 0.0
2017-Aug-11 02:30N 43°32' E 007°02'0 0.0
2017-Aug-11 02:00N 43°32' E 007°02'0 0.0
2017-Aug-11 01:30N 43°32' E 007°02'0 0.0
2017-Aug-11 01:00N 43°32' E 007°02'0 0.0
2017-Aug-11 00:30N 43°32' E 007°02'0 0.0
2017-Aug-11 00:00N 43°32' E 007°02'0 0.0
2017-Aug-10 23:30N 43°32' E 007°02'0 0.0
2017-Aug-10 23:00N 43°32' E 007°02'0 0.0
2017-Aug-10 22:30N 43°32' E 007°02'0 0.0
2017-Aug-10 22:00N 43°32' E 007°02'0 0.0
2017-Aug-10 21:30N 43°32' E 007°02'0 0.0
2017-Aug-10 21:00N 43°32' E 007°02'0 0.0
2017-Aug-10 20:30N 43°32' E 007°02'0 0.0
2017-Aug-10 20:00N 43°32' E 007°02'0 0.0
2017-Aug-10 19:30N 43°32' E 007°02'0 0.0
2017-Aug-10 19:00N 43°32' E 007°02'0 0.0
2017-Aug-10 18:30N 43°32' E 007°02'0 0.0
2017-Aug-10 18:00N 43°32' E 007°02'0 0.0
2017-Aug-10 17:30N 43°32' E 007°02'0 0.0
2017-Aug-10 17:00N 43°32' E 007°02'0 0.0
2017-Aug-10 16:30N 43°32' E 007°02'0 0.0
2017-Aug-10 16:00N 43°32' E 007°02'0 0.0
2017-Aug-10 15:30N 43°32' E 007°02'0 0.0
2017-Aug-10 15:00N 43°32' E 007°02'0 0.0
2017-Aug-10 14:30N 43°32' E 007°02'0 0.0
2017-Aug-10 14:01N 43°32' E 007°02'0 0.0
2017-Aug-10 13:30N 43°32' E 007°02'0 0.0
2017-Aug-10 13:00N 43°32' E 007°02'0 0.0
2017-Aug-10 12:30N 43°32' E 007°02'0 0.0
2017-Aug-10 12:00N 43°32' E 007°02'0 0.0
2017-Aug-10 11:30N 43°32' E 007°02'0 0.0
2017-Aug-10 11:00N 43°32' E 007°02'0 0.0
2017-Aug-10 10:30N 43°32' E 007°02'0 0.0
2017-Aug-10 10:00N 43°32' E 007°02'0 0.0
2017-Aug-10 09:30N 43°32' E 007°02'0 0.0
2017-Aug-10 09:00N 43°32' E 007°02'0 0.0
2017-Aug-10 08:30N 43°32' E 007°02'0 0.0
2017-Aug-10 08:00N 43°32' E 007°02'0 0.0
2017-Aug-10 07:30N 43°32' E 007°02'0 0.0
2017-Aug-10 07:00N 43°32' E 007°02'0 0.0
2017-Aug-10 06:30N 43°32' E 007°02'0 0.0
2017-Aug-10 06:00N 43°32' E 007°02'0 0.0
2017-Aug-10 05:30N 43°32' E 007°02'0 0.0
2017-Aug-10 05:00N 43°32' E 007°02'0 0.0
2017-Aug-10 04:30N 43°32' E 007°02'0 0.0
2017-Aug-10 04:01N 43°32' E 007°02'0 0.0
2017-Aug-10 03:30N 43°32' E 007°02'0 0.0
2017-Aug-10 03:00N 43°32' E 007°02'0 0.0
2017-Aug-10 02:30N 43°32' E 007°02'0 0.0
2017-Aug-10 02:01N 43°32' E 007°02'0 0.0
2017-Aug-10 01:31N 43°32' E 007°02'0 0.0
2017-Aug-10 01:00N 43°32' E 007°02'0 0.0
2017-Aug-10 00:30N 43°32' E 007°02'0 0.0
2017-Aug-10 00:00N 43°32' E 007°02'0 0.0
2017-Aug-09 23:30N 43°32' E 007°02'0 0.0
2017-Aug-09 23:00N 43°32' E 007°02'0 0.0
2017-Aug-09 22:30N 43°32' E 007°02'0 0.0
2017-Aug-09 22:00N 43°32' E 007°02'0 0.0
2017-Aug-09 21:30N 43°32' E 007°02'0 0.0
2017-Aug-09 21:00N 43°32' E 007°02'0 0.0
2017-Aug-09 20:30N 43°32' E 007°02'0 0.0
2017-Aug-09 20:00N 43°32' E 007°02'0 0.0
2017-Aug-09 19:30N 43°32' E 007°02'0 0.0
2017-Aug-09 19:00N 43°32' E 007°02'0 0.0
2017-Aug-09 18:30N 43°32' E 007°02'0 0.0
2017-Aug-09 18:00N 43°32' E 007°02'0 0.0
2017-Aug-09 17:30N 43°32' E 007°02'0 0.0
2017-Aug-09 17:00N 43°32' E 007°02'0 0.0
2017-Aug-09 16:30N 43°32' E 007°02'0 0.0
2017-Aug-09 16:00N 43°32' E 007°02'0 0.0
2017-Aug-09 15:30N 43°32' E 007°02'0 0.0
2017-Aug-09 15:00N 43°32' E 007°02'0 0.0
2017-Aug-09 14:30N 43°32' E 007°02'0 0.0
2017-Aug-09 14:00N 43°32' E 007°02'0 0.0
2017-Aug-09 13:30N 43°32' E 007°02'0 0.0
2017-Aug-09 13:00N 43°32' E 007°02'0 0.0
2017-Aug-09 12:30N 43°32' E 007°02'3 5.1
2017-Aug-09 12:00N 43°30' E 007°02'812.8
2017-Aug-09 11:22N 43°35' E 007°11'1312.8
2017-Aug-09 10:21N 43°43' E 007°25'1 0.1
2017-Aug-08 14:08N 43°44' E 007°25'0 0.0
2017-Aug-08 13:55N 43°44' E 007°25'0 0.0
2017-Aug-08 13:29N 43°44' E 007°25'0 0.0
2017-Aug-08 12:43N 43°44' E 007°25'0 0.0
2017-Aug-08 12:20N 43°44' E 007°25'0 0.0
2017-Aug-08 12:00N 43°44' E 007°25'  

Dump ship's entire track history